FW8459 Weather Reports


time (UTC)temp
F
wind
direction
speed
knots
gust
knots
rain 1hr
in
rain 24hr
in
rain mn
in
humidity
%
barometer
mb
20221207225035 59 331 1.7 2.6 0.00 0.00 0.00 49 1009.2
20221207224533 59 227 5.2 7.8 0.00 0.00 0.00 46 1009.3
20221207224031 59 185 4.3 5.2 0.00 0.00 0.00 48 1009.2
20221207223530 59 230 4.3 5.2 0.00 0.00 0.00 49 1009.2
20221207223030 59 246 3.5 5.2 0.00 0.00 0.00 50 1008.9
20221207222529 58 226 3.5 5.2 0.00 0.00 0.00 52 1009.0
20221207222029 59 277 7.8 13.9 0.00 0.00 0.00 55 1008.7
20221207221528 58 241 6.1 9.6 0.00 0.00 0.00 57 1008.9
20221207221027 58 237 5.2 7.8 0.00 0.00 0.00 57 1008.7
20221207220526 58 253 6.1 7.8 0.00 0.00 0.00 60 1008.9
20221207220026 58 293 8.7 12.2 0.00 0.00 0.00 59 1008.8
20221207215525 58 256 5.2 6.1 0.00 0.00 0.00 57 1008.9
20221207215024 58 218 1.7 4.3 0.00 0.00 0.00 59 1008.8
20221207214523 57 215 5.2 7.8 0.00 0.00 0.00 63 1008.7
20221207214023 57 134 5.2 7.8 0.00 0.00 0.00 64 1008.9
20221207213521 57 234 3.5 6.1 0.00 0.00 0.00 64 1008.9
20221207213021 56 193 0.9 1.7 0.00 0.00 0.00 65 1008.8
20221207212519 56 237 4.3 7.0 0.00 0.00 0.00 65 1008.7
20221207212019 56 193 2.6 4.3 0.00 0.00 0.00 68 1008.6
20221207211518 55 230 0.9 0.9 0.00 0.00 0.00 71 1008.3
20221207211017 55 211 5.2 6.1 0.00 0.00 0.00 71 1008.4
20221207210517 55 198 2.6 4.3 0.00 0.00 0.00 73 1008.3
20221207210015 55 226 1.7 5.2 0.00 0.00 0.00 72 1008.3
20221207205515 55 291 1.7 1.7 0.00 0.00 0.00 72 1008.5
20221207205013 55 208 3.5 4.3 0.00 0.00 0.00 74 1008.4
20221207204513 53 235 3.5 5.2 0.00 0.00 0.00 76 1008.3
20221207204012 53 277 1.7 2.6 0.00 0.00 0.00 79 1008.2
20221207203512 53 232 3.5 7.8 0.00 0.00 0.00 79 1008.3
20221207203011 52 227 6.1 7.0 0.00 0.00 0.00 80 1008.2
20221207202511 52 225 0.9 1.7 0.00 0.00 0.00 81 1008.2
20221207202011 52 260 0.0 0.9 0.00 0.00 0.00 81 1008.1
20221207201509 52 242 0.9 0.9 0.00 0.00 0.00 82 1008.1
20221207201009 52 270 1.7 1.7 0.00 0.00 0.00 82 1007.7
20221207200507 52 250 0.0 0.0 0.00 0.00 0.00 82 1007.7
20221207200005 51 285 0.0 0.9 0.00 0.00 0.00 83 1007.8
20221207195504 51 225 1.7 2.6 0.00 0.00 0.00 83 1007.8
20221207195009 51 250 1.7 1.7 0.00 0.00 0.00 84 1008.0
20221207194503 51 257 0.0 0.0 0.00 0.00 0.00 84 1007.7
20221207194003 51 250 1.7 2.6 0.00 0.00 0.00 84 1007.8
20221207193503 51 222 1.7 1.7 0.00 0.00 0.00 85 1007.8
20221207193002 50 254 0.0 0.9 0.00 0.00 0.00 86 1007.9
20221207192502 50 251 0.0 0.0 0.00 0.00 0.00 86 1007.9
20221207192001 50 211 0.9 1.7 0.00 0.00 0.00 85 1007.7
20221207191501 51 256 0.0 0.0 0.00 0.00 0.00 84 1007.8
20221207191001 51 244 0.0 0.0 0.00 0.00 0.00 83 1007.6
20221207190500 51 229 2.6 4.3 0.00 0.00 0.00 82 1007.4
20221207185959 51 278 3.5 6.1 0.00 0.00 0.00 83 1007.4
20221207185457 51 237 0.9 1.7 0.00 0.00 0.00 84 1007.4
20221207184957 52 215 2.6 2.6 0.00 0.00 0.00 83 1007.3
20221207184457 52 214 4.3 7.0 0.00 0.00 0.00 84 1007.3
20221207183957 52 205 2.6 5.2 0.00 0.00 0.00 84 1007.2
20221207183457 52 249 2.6 5.2 0.00 0.00 0.00 83 1007.0
20221207182956 53 312 2.6 4.3 0.00 0.00 0.00 83 1006.9
20221207182454 53 289 2.6 4.3 0.00 0.00 0.00 83 1006.7
20221207181953 53 231 4.3 6.1 0.00 0.00 0.00 82 1006.8
20221207181453 53 250 0.9 1.7 0.00 0.00 0.00 81 1006.7
20221207180950 53 227 3.5 4.3 0.00 0.00 0.00 82 1006.6
20221207180450 53 227 3.5 4.3 0.00 0.00 0.00 82 1006.4
20221207175950 54 238 2.6 2.6 0.00 0.00 0.00 81 1006.4
20221207175450 54 255 2.6 4.3 0.00 0.00 0.00 80 1006.4
20221207174950 55 177 5.2 7.0 0.00 0.00 0.00 79 1006.6
20221207174449 55 224 3.5 5.2 0.00 0.00 0.00 81 1006.5
20221207173948 55 258 3.5 5.2 0.00 0.00 0.00 83 1006.5
20221207173448 55 240 1.7 2.6 0.00 0.00 0.00 85 1006.4
20221207172947 56 211 2.6 4.3 0.00 0.00 0.00 85 1006.1
20221207172445 56 245 3.5 6.1 0.00 0.00 0.00 84 1006.0
20221207171943 56 210 2.6 2.6 0.00 0.00 0.00 84 1006.2
20221207171442 56 237 2.6 2.6 0.00 0.00 0.00 84 1006.2
20221207170941 56 245 4.3 6.1 0.00 0.00 0.00 85 1006.3
20221207170441 55 221 2.6 2.6 0.00 0.00 0.00 85 1006.1
20221207165940 56 236 2.6 2.6 0.00 0.00 0.00 86 1006.0
20221207165440 56 253 2.6 4.3 0.00 0.00 0.00 86 1006.2
20221207164940 56 246 1.7 1.7 0.00 0.00 0.00 86 1006.2
20221207164439 56 262 4.3 5.2 0.00 0.00 0.00 86 1006.5
20221207163938 56 221 2.6 4.3 0.00 0.00 0.00 88 1006.2
20221207163436 55 242 1.7 2.6 0.00 0.00 0.00 89 1006.3
20221207162935 55 251 1.7 2.6 0.00 0.00 0.00 92 1006.3
20221207162435 55 232 4.3 5.2 0.00 0.00 0.00 94 1006.2
20221207161934 55 257 0.9 0.9 0.00 0.00 0.00 95 1006.3
20221207161434 55 249 0.0 0.9 0.00 0.00 0.00 95 1006.3
20221207160934 55 264 0.0 0.9 0.00 0.00 0.00 95 1006.2
20221207160433 55 257 0.0 0.9 0.00 0.00 0.00 95 1006.2
20221207155932 55 259 0.0 0.0 0.00 0.00 0.00 94 1006.2
20221207155431 55 266 0.0 0.0 0.00 0.00 0.00 94 1006.0
20221207154929 55 272 0.0 0.0 0.00 0.00 0.00 94 1006.3
20221207154427 55 277 0.0 0.0 0.00 0.00 0.00 94 1006.2
20221207153928 55 286 0.9 0.9 0.00 0.00 0.00 94 1006.2
20221207153426 56 264 0.9 0.9 0.00 0.00 0.00 94 1006.3
20221207152926 56 254 0.0 0.0 0.00 0.00 0.00 93 1006.5
20221207152424 56 280 0.9 0.9 0.00 0.00 0.00 93 1006.3
20221207151924 56 250 0.9 0.9 0.00 0.00 0.00 93 1006.4
20221207151423 56 242 1.7 2.6 0.00 0.00 0.00 93 1006.3
20221207150921 56 334 0.9 0.9 0.00 0.00 0.00 93 1006.5
20221207150421 56 240 0.0 0.0 0.00 0.00 0.00 93 1006.4
20221207145920 56 309 0.9 1.7 0.00 0.00 0.00 93 1006.6
20221207145419 56 289 0.0 0.0 0.00 0.00 0.00 93 1006.7
20221207144918 56 341 2.6 2.6 0.00 0.00 0.00 93 1006.6
20221207144418 56 273 0.0 0.0 0.00 0.00 0.00 93 1006.5
20221207143917 56 355 0.9 1.7 0.00 0.00 0.00 93 1006.7
20221207143417 56 285 0.0 0.9 0.00 0.00 0.00 93 1006.7
20221207142917 56 282 2.6 2.6 0.00 0.00 0.00 93 1006.9
20221207142416 56 268 0.0 0.0 0.00 0.00 0.00 93 1007.1
20221207141915 56 314 1.7 1.7 0.00 0.00 0.00 93 1007.2
20221207141414 55 260 0.0 0.0 0.00 0.00 0.00 93 1006.9
20221207140913 55 241 0.0 0.9 0.00 0.00 0.00 93 1007.2
20221207140413 55 311 0.9 0.9 0.00 0.00 0.00 94 1007.3
20221207135911 55 3 0.9 1.7 0.00 0.18 0.18 94 1007.6
20221207135411 55 293 0.9 0.9 0.00 0.18 0.18 95 1007.4
20221207134909 55 304 1.7 1.7 0.00 0.18 0.18 95 1007.4
20221207134409 54 237 0.9 1.7 0.00 0.18 0.18 95 1007.4
20221207133908 54 255 0.9 1.7 0.00 0.18 0.18 95 1007.4
20221207133406 54 273 0.0 0.0 0.00 0.18 0.18 95 1007.4
20221207132904 54 301 0.0 0.0 0.00 0.18 0.18 95 1007.2
20221207132403 54 226 0.9 1.7 0.00 0.18 0.18 96 1007.4
20221207131903 54 300 0.0 0.0 0.00 0.18 0.18 96 1007.4
20221207131401 54 262 0.9 0.9 0.00 0.18 0.18 96 1007.2
20221207130901 54 266 0.0 0.9 0.00 0.18 0.18 96 1007.1
20221207130359 54 265 0.0 0.0 0.00 0.18 0.18 96 1007.3
20221207125859 54 260 0.0 0.0 0.00 0.18 0.18 96 1007.3
20221207125357 54 263 0.0 0.0 0.00 0.18 0.18 96 1007.1
20221207124856 54 270 0.0 0.0 0.00 0.18 0.18 96 1007.6
20221207124355 54 262 0.0 0.0 0.00 0.18 0.18 96 1007.4
20221207123854 55 263 0.0 0.0 0.00 0.18 0.18 96 1007.8
20221207123353 55 266 0.9 0.9 0.00 0.18 0.18 96 1007.8
20221207122854 55 305 3.5 4.3 0.00 0.18 0.18 96 1007.8
20221207122352 55 336 2.6 2.6 0.00 0.18 0.18 96 1007.9
20221207121851 55 336 0.9 1.7 0.00 0.18 0.18 96 1007.9
20221207121349 55 318 1.7 2.6 0.00 0.18 0.18 96 1007.8
20221207120847 55 321 1.7 1.7 0.00 0.18 0.18 96 1007.8
20221207120346 55 333 1.7 1.7 0.00 0.18 0.18 96 1007.8
20221207115846 55 291 0.0 0.9 0.00 0.18 0.18 96 1008.1
20221207115346 55 268 0.0 0.0 0.00 0.18 0.18 96 1008.0
20221207114846 55 258 0.0 0.9 0.00 0.18 0.18 96 1008.1
20221207114344 55 255 0.0 0.0 0.00 0.18 0.18 96 1008.1
20221207113844 55 261 0.9 0.9 0.00 0.18 0.18 96 1007.9
20221207113342 55 200 0.9 0.9 0.00 0.18 0.18 96 1007.9
20221207112841 55 264 0.9 1.7 0.00 0.18 0.18 96 1007.9
20221207112341 55 284 0.0 0.9 0.00 0.18 0.18 96 1007.3
20221207111839 55 300 0.0 0.9 0.00 0.18 0.18 96 1007.3
20221207111339 55 323 1.7 1.7 0.00 0.18 0.18 96 1007.1
20221207110838 55 279 0.9 1.7 0.00 0.18 0.18 96 1007.2
20221207110337 55 293 0.0 0.0 0.00 0.18 0.18 96 1007.1
20221207105837 55 290 0.0 0.9 0.00 0.18 0.18 96 1007.0
20221207105337 55 253 0.0 0.9 0.00 0.18 0.18 96 1007.3
20221207104835 55 253 0.9 0.9 0.00 0.18 0.18 96 1007.1
20221207104334 55 274 0.9 0.9 0.00 0.18 0.18 96 1007.3
20221207103833 55 259 0.0 0.0 0.00 0.18 0.18 96 1007.0
20221207103331 55 241 0.0 0.0 0.00 0.18 0.18 96 1006.9
20221207102829 55 206 0.9 1.7 0.00 0.18 0.18 96 1007.0
20221207102329 55 211 0.9 1.7 0.00 0.18 0.18 96 1006.8
20221207101829 55 331 1.7 2.6 0.00 0.18 0.18 95 1006.4
20221207101328 55 301 2.6 2.6 0.00 0.18 0.18 95 1006.0
20221207100829 55 349 0.9 1.7 0.00 0.18 0.18 95 1006.0
20221207100328 55 272 1.7 1.7 0.00 0.18 0.18 95 1006.6
20221207095828 55 200 0.9 0.9 0.07 0.18 0.18 95 1006.5
20221207095328 55 263 0.0 0.9 0.07 0.18 0.18 95 1005.8
20221207094828 55 36 4.3 6.1 0.07 0.18 0.18 95 1005.3
20221207094327 55 355 1.7 1.7 0.04 0.17 0.17 95 1006.2
20221207093825 55 259 0.9 0.9 0.04 0.17 0.17 95 1005.6
20221207093325 55 10 2.6 2.6 0.00 0.16 0.16 95 1005.4
20221207092824 56 269 3.5 5.2 0.00 0.16 0.16 95 1006.1
20221207092322 56 4 2.6 4.3 0.00 0.16 0.16 95 1005.5
20221207091821 56 327 0.9 1.7 0.00 0.16 0.16 94 1006.1
20221207091321 55 356 2.6 4.3 0.00 0.16 0.16 94 1006.4
20221207090820 55 17 3.5 4.3 0.00 0.16 0.16 94 1006.7
20221207090320 56 311 0.9 0.9 0.00 0.16 0.16 94 1006.8
20221207085819 56 351 1.7 1.7 0.00 0.16 0.16 94 1006.8
20221207085319 56 4 3.5 4.3 0.07 0.16 0.16 94 1006.5
20221207084818 56 329 2.6 4.3 0.07 0.16 0.16 93 1006.6
20221207084318 56 265 1.7 4.3 0.04 0.15 0.15 93 1006.4
20221207083816 56 336 1.7 2.6 0.11 0.15 0.15 92 1007.0
20221207083315 56 326 6.1 8.7 0.18 0.15 0.15 92 1007.0
20221207082813 56 284 0.9 0.9 0.11 0.13 0.13 92 1007.4
20221207082311 56 285 1.7 1.7 0.00 0.11 0.11 92 1007.8
20221207081810 56 317 2.6 4.3 0.04 0.11 0.11 92 1007.8
20221207081310 57 246 1.7 1.7 0.04 0.11 0.11 91 1007.3
20221207080807 57 262 2.6 2.6 0.00 0.11 0.11 90 1007.4
20221207080306 57 320 1.7 5.2 0.11 0.11 0.11 90 1007.9
20221207075805 57 285 0.9 1.7 0.18 0.11 0.11 88 1007.1
20221207075305 58 347 2.6 2.6 0.07 0.09 0.09 87 1007.2
20221207074802 58 223 2.6 5.2 0.00 0.07 0.07 86 1007.8
20221207074302 58 261 0.9 0.9 0.00 0.07 0.07 86 1007.4
20221207073801 58 321 1.7 1.7 0.00 0.07 0.07 87 1007.3
20221207073300 58 304 1.7 2.6 0.00 0.07 0.07 89 1007.0
20221207072758 58 33 1.7 2.6 0.00 0.07 0.07 89 1006.9
20221207072257 58 323 2.6 2.6 0.00 0.07 0.07 89 1006.7
20221207071756 58 303 0.9 0.9 0.00 0.07 0.07 89 1007.0
20221207071255 58 274 0.9 1.7 0.00 0.07 0.07 89 1006.9
20221207070754 58 233 2.6 4.3 0.00 0.07 0.07 89 1006.6
20221207070253 59 254 1.7 2.6 0.00 0.07 0.07 89 1007.2
20221207065753 59 307 2.6 2.6 0.00 0.07 0.07 89 1008.0
20221207065253 59 289 1.7 1.7 0.00 0.07 0.07 89 1007.4
20221207064751 59 234 3.5 4.3 0.07 0.07 0.07 89 1006.6
20221207064249 59 277 2.6 4.3 0.07 0.07 0.07 88 1007.0
20221207063748 59 232 2.6 2.6 0.00 0.06 0.06 88 1006.7
20221207063248 59 206 4.3 7.8 0.00 0.06 0.06 89 1007.0
20221207062748 59 251 1.7 2.6 0.00 0.06 0.06 89 1006.8
20221207062246 59 275 1.7 1.7 0.00 0.06 0.06 90 1006.6
20221207061745 59 262 1.7 2.6 0.00 0.06 0.06 91 1006.4
20221207061243 58 322 4.3 7.0 0.00 0.06 0.06 91 1006.6
20221207060743 58 0 4.3 7.0 0.11 0.06 0.06 91 1006.0
20221207060243 58 253 2.6 5.2 0.11 0.06 0.06 91 1006.3
20221207055742 58 117 2.6 4.3 0.00 0.04 0.04 90 1006.7
20221207055242 58 275 0.0 0.0 0.04 0.04 0.04 90 1006.7
20221207054742 58 269 0.9 0.9 0.04 0.04 0.04 89 1006.2
20221207054240 59 342 4.3 6.1 0.07 0.03 0.03 88 1005.6
20221207053738 59 24 2.6 5.2 0.07 0.03 0.03 86 1007.3
20221207053236 59 281 0.9 1.7 0.00 0.02 0.02 85 1007.8
20221207052736 59 242 5.2 6.1 0.00 0.02 0.02 85 1007.9
20221207052236 59 225 2.6 4.3 0.00 0.02 0.02 86 1008.1
20221207051735 59 7 0.9 1.7 0.00 0.02 0.02 88 1007.8
20221207051234 59 238 0.0 0.0 0.04 0.02 0.02 88 1007.4
20221207050734 59 251 1.7 1.7 0.04 0.02 0.02 87 1008.5
20221207050233 59 280 1.7 1.7 0.00 0.02 0.02 87 1007.6
20221207045731 59 220 2.6 2.6 0.00 0.02 0.02 87 1007.6
20221207045231 59 272 1.7 2.6 0.00 0.02 0.02 86 1007.2
20221207044731 59 238 1.7 2.6 0.00 0.02 0.02 88 1007.8
20221207044229 59 260 0.9 0.9 0.00 0.02 0.02 88 1006.8
20221207043729 58 236 0.0 0.0 0.00 0.02 0.02 88 1006.8
20221207043228 58 345 1.7 5.2 0.00 0.02 0.02 88 1006.0
20221207042726 58 320 2.6 4.3 0.00 0.02 0.02 88 1006.0
20221207042226 58 43 1.7 2.6 0.00 0.02 0.02 87 1005.7
20221207041725 58 213 3.5 5.2 0.00 0.02 0.02 87 1007.1
20221207041224 58 222 2.6 2.6 0.00 0.02 0.02 87 1007.4
20221207040724 58 275 0.9 1.7 0.07 0.02 0.02 86 1007.1
20221207040224 58 329 5.2 7.0 0.07 0.02 0.02 83 1007.1
20221207035724 59 14 0.0 0.9 0.04 0.00 0.00 81 1008.4
20221207035223 60 219 1.7 2.6 0.04 0.00 0.00 78 1008.7
20221207034721 60 2 3.5 5.2 0.00 0.00 0.00 73 1007.7
20221207034220 61 275 2.6 5.2 0.00 0.00 0.00 69 1008.0
20221207033719 62 287 3.5 5.2 0.00 0.00 0.00 65 1007.9
20221207033218 63 349 4.3 6.1 0.00 0.00 0.00 61 1007.2
20221207032717 64 218 1.7 2.6 0.00 0.00 0.00 58 1008.1
20221207032216 64 231 3.5 4.3 0.00 0.00 0.00 55 1008.2
20221207031716 65 207 1.7 2.6 0.00 0.00 0.00 51 1008.3
20221207031214 65 305 2.6 2.6 0.00 0.00 0.00 51 1008.3
20221207030713 65 296 2.6 2.6 0.00 0.00 0.00 49 1008.4
20221207030212 66 300 4.3 6.1 0.00 0.00 0.00 47 1009.0
20221207025712 67 259 0.9 1.7 0.00 0.00 0.00 46 1009.0
20221207025210 66 256 2.6 4.3 0.00 0.00 0.00 45 1008.9
20221207024709 66 178 3.5 5.2 0.00 0.00 0.00 46 1007.7
20221207024209 67 325 2.6 2.6 0.00 0.00 0.00 47 1007.3
20221207023708 67 277 0.9 0.9 0.00 0.00 0.00 48 1007.4
20221207023207 67 262 2.6 2.6 0.00 0.00 0.00 47 1007.6
20221207022708 67 319 3.5 4.3 0.00 0.00 0.00 47 1007.8
20221207022208 68 261 1.7 1.7 0.00 0.00 0.00 47 1007.9
20221207021707 68 314 1.7 1.7 0.00 0.00 0.00 48 1008.4
20221207021206 68 256 0.9 1.7 0.00 0.00 0.00 49 1008.6
20221207020705 68 270 1.7 2.6 0.00 0.00 0.00 47 1008.7
20221207020204 68 319 3.5 5.2 0.00 0.00 0.00 48 1008.3
20221207015703 68 276 2.6 4.3 0.00 0.00 0.00 48 1008.4
20221207015202 68 294 1.7 1.7 0.00 0.00 0.00 50 1007.9
20221207014700 68 274 1.7 2.6 0.00 0.00 0.00 49 1008.5
20221207014200 68 304 2.6 4.3 0.00 0.00 0.00 47 1008.7
20221207013659 68 264 1.7 2.6 0.00 0.00 0.00 46 1008.7
20221207013157 69 301 1.7 2.6 0.00 0.00 0.00 44 1008.9
20221207012657 69 186 3.5 5.2 0.00 0.00 0.00 43 1008.3
20221207012153 69 224 1.7 4.3 0.00 0.00 0.00 41 1008.0
20221207011652 70 266 1.7 2.6 0.00 0.00 0.00 41 1008.1
20221207011152 70 275 2.6 2.6 0.00 0.00 0.00 40 1008.1
20221207010651 70 322 2.6 2.6 0.00 0.00 0.00 39 1008.3
20221207010151 70 317 2.6 2.6 0.00 0.00 0.00 39 1008.4
20221207005649 70 245 2.6 2.6 0.00 0.00 0.00 38 1008.5
20221207005148 71 255 0.9 0.9 0.00 0.00 0.00 38 1008.5
20221207004647 72 267 2.6 4.3 0.00 0.00 0.00 37 1008.3
20221207004146 72 267 0.9 1.7 0.00 0.00 0.00 38 1008.2
20221207003644 71 275 0.9 1.7 0.00 0.00 0.00 39 1008.1
20221207003143 71 265 0.9 0.9 0.00 0.00 0.00 38 1008.2
20221207002642 72 274 0.9 1.7 0.00 0.00 0.00 37 1008.2
20221207002142 72 244 2.6 4.3 0.00 0.00 0.00 36 1008.2
20221207001641 73 278 0.9 0.9 0.00 0.00 0.00 38 1008.4
20221207001140 73 242 1.7 1.7 0.00 0.00 0.00 38 1008.2
20221207000640 73 221 0.9 1.7 0.00 0.00 0.00 38 1008.2
20221207000139 75 51 3.5 5.2 0.00 0.00 0.00 38 1008.3
20221206235639 74 238 3.5 7.0 0.00 0.00 0.00 39 1008.0
20221206235139 73 227 2.6 6.1 0.00 0.00 0.00 39 1008.0
20221206234638 73 188 3.5 5.2 0.00 0.00 0.00 40 1008.2
20221206234137 73 344 4.3 8.7 0.00 0.00 0.00 42 1008.1
20221206233635 73 317 2.6 2.6 0.00 0.00 0.00 44 1008.1
20221206233131 73 324 3.5 6.1 0.00 0.00 0.00 46 1008.1
20221206232631 71 241 3.5 5.2 0.00 0.00 0.00 48 1008.4
20221206232131 71 270 1.7 2.6 0.00 0.00 0.00 47 1008.3
20221206231631 70 237 2.6 4.3 0.00 0.00 0.00 49 1008.4
20221206231129 71 228 1.7 2.6 0.00 0.00 0.00 47 1008.1
20221206230628 73 21 7.0 9.6 0.00 0.00 0.00 45 1008.2
20221206230126 73 345 4.3 7.0 0.00 0.00 0.00 46 1008.4
20221206225624 71 187 2.6 2.6 0.00 0.00 0.00 47 1008.5